createdAt,value
2018-05-07T00:01:43.224Z,102115.14
2018-05-07T00:04:47.616Z,102112.31
2018-05-07T00:07:51.062Z,102112.45
2018-05-07T00:10:54.425Z,102115.43
2018-05-07T00:13:57.712Z,102116.36
2018-05-07T00:17:02.002Z,102109.48
2018-05-07T00:20:05.335Z,102108.18
2018-05-07T00:23:08.648Z,102105.46
2018-05-07T00:26:11.960Z,102103.79
2018-05-07T00:29:15.330Z,102102.95
2018-05-07T00:32:18.754Z,102100.64
2018-05-07T00:35:22.040Z,102100.16
2018-05-07T00:38:33.358Z,102102.73
2018-05-07T00:41:36.675Z,102098.43
2018-05-07T00:44:40.924Z,102098.46
2018-05-07T00:47:44.315Z,102102.29
2018-05-07T00:50:47.640Z,102099.23
2018-05-07T00:53:50.971Z,102091.02
2018-05-07T00:56:54.241Z,102093.04
2018-05-07T00:59:57.755Z,102098.14
2018-05-07T01:03:01.398Z,102101.78
2018-05-07T01:06:04.767Z,102104.64
2018-05-07T01:09:08.143Z,102104.96
2018-05-07T01:12:11.462Z,102105.98
2018-05-07T01:15:14.894Z,102105.23
2018-05-07T01:18:19.250Z,102106.98
2018-05-07T01:21:22.576Z,102105.90
2018-05-07T01:24:25.905Z,102108.73
2018-05-07T01:27:29.668Z,102108.04
2018-05-07T01:30:33.977Z,102109.92
2018-05-07T01:33:37.399Z,102113.83
2018-05-07T01:36:41.703Z,102106.63
2018-05-07T01:39:45.007Z,102104.35
2018-05-07T01:42:48.341Z,102106.62
2018-05-07T01:45:51.689Z,102103.72
2018-05-07T01:48:56.044Z,102104.33
2018-05-07T01:52:03.595Z,102102.60
2018-05-07T01:55:06.844Z,102097.47
2018-05-07T01:58:10.122Z,102091.17
2018-05-07T02:01:13.525Z,102090.84
2018-05-07T02:04:16.868Z,102083.91
2018-05-07T02:07:20.148Z,102080.72
2018-05-07T02:10:23.467Z,102082.60
2018-05-07T02:13:26.837Z,102077.89
2018-05-07T02:16:31.876Z,102080.98
2018-05-07T02:19:35.287Z,102076.36
2018-05-07T02:22:38.658Z,102080.91
2018-05-07T02:25:42.759Z,102077.20
2018-05-07T02:28:45.908Z,102079.59
2018-05-07T02:31:49.281Z,102076.96
2018-05-07T02:34:52.643Z,102069.15
2018-05-07T02:37:55.952Z,102067.35
2018-05-07T02:40:59.352Z,102069.02
2018-05-07T02:44:03.168Z,102068.69
2018-05-07T02:47:06.524Z,102070.87
2018-05-07T02:50:09.863Z,102059.72
2018-05-07T02:53:13.132Z,102057.87
2018-05-07T02:56:16.343Z,102059.52
2018-05-07T02:59:19.736Z,102058.83
2018-05-07T03:02:23.080Z,102045.94
2018-05-07T03:05:26.328Z,102050.31
2018-05-07T03:08:29.732Z,102040.90
2018-05-07T03:11:34.029Z,102045.99
2018-05-07T03:14:37.383Z,102039.46
2018-05-07T03:17:40.767Z,102036.49
2018-05-07T03:20:44.059Z,102032.85
2018-05-07T03:23:49.379Z,102031.15
2018-05-07T03:26:52.811Z,102035.87
2018-05-07T03:29:56.341Z,102040.00
2018-05-07T03:32:59.711Z,102037.33
2018-05-07T03:36:04.247Z,102038.73
2018-05-07T03:39:07.661Z,102044.72
2018-05-07T03:42:11.922Z,102045.58
2018-05-07T03:45:15.307Z,102047.71
2018-05-07T06:04:09.396Z,102083.10
2018-05-07T06:07:12.799Z,102088.81
2018-05-07T06:10:16.284Z,102079.95
2018-05-07T06:13:19.655Z,102083.98
2018-05-07T06:16:23.115Z,102084.14
2018-05-07T06:19:26.468Z,102086.16
2018-05-07T06:22:29.884Z,102090.35
2018-05-07T06:25:33.282Z,102089.24
2018-05-07T06:28:36.560Z,102089.03
2018-05-07T06:31:39.874Z,102089.33
2018-05-07T06:34:43.719Z,102086.86
2018-05-07T06:37:47.038Z,102089.00
2018-05-07T06:40:50.462Z,102088.00
2018-05-07T06:43:53.848Z,102078.12
2018-05-07T06:46:58.183Z,102079.00
2018-05-07T06:50:02.520Z,102076.41
2018-05-07T06:53:05.874Z,102076.05
2018-05-07T06:56:09.116Z,102081.03
2018-05-07T06:59:12.388Z,102083.27
2018-05-07T07:02:16.776Z,102086.31
2018-05-07T07:05:20.022Z,102078.10
2018-05-07T07:08:23.419Z,102080.60
2018-05-07T07:11:26.589Z,102079.24
2018-05-07T07:14:30.135Z,102082.62
2018-05-07T07:17:33.586Z,102080.37
2018-05-07T07:20:36.907Z,102078.94
2018-05-07T07:23:40.334Z,102079.55
2018-05-07T07:26:43.672Z,102077.82
2018-05-07T07:29:47.051Z,102070.12
2018-05-07T07:32:50.470Z,102074.64
2018-05-07T07:35:54.556Z,102074.76
2018-05-07T07:38:57.961Z,102074.61
2018-05-07T07:42:01.283Z,102079.17
2018-05-07T07:45:04.589Z,102071.88
2018-05-07T07:48:07.895Z,102073.75
2018-05-07T07:51:11.375Z,102073.17
2018-05-07T07:54:14.696Z,102073.87
2018-05-07T07:57:17.999Z,102070.84
2018-05-07T08:00:21.286Z,102075.83
2018-05-07T08:03:25.288Z,102075.10
2018-05-07T08:06:28.513Z,102070.71
2018-05-07T08:09:31.880Z,102065.40
2018-05-07T08:12:35.259Z,102064.69
2018-05-07T08:15:38.606Z,102056.68
2018-05-07T08:18:41.949Z,102062.59
2018-05-07T08:21:45.308Z,102055.98
2018-05-07T08:24:48.633Z,102054.53
2018-05-07T08:27:52.445Z,102055.47
2018-05-07T08:30:55.875Z,102052.35
2018-05-07T08:33:59.166Z,102053.51
2018-05-07T08:37:02.584Z,102044.12
2018-05-07T08:40:05.875Z,102041.14
2018-05-07T08:43:10.249Z,102035.31
2018-05-07T08:46:13.567Z,102038.74
2018-05-07T08:49:17.223Z,102039.78
2018-05-07T08:52:20.527Z,102039.44
2018-05-07T08:55:24.061Z,102039.44
2018-05-07T08:58:27.507Z,102040.95
2018-05-07T09:01:30.795Z,102042.43
2018-05-07T09:04:34.388Z,102036.32
2018-05-07T09:07:37.727Z,102030.57
2018-05-07T09:10:41.137Z,102019.81
2018-05-07T09:13:44.487Z,102022.04
2018-05-07T09:16:47.861Z,102017.86
2018-05-07T09:19:51.265Z,102015.06
2018-05-07T09:22:55.503Z,102017.49
2018-05-07T09:25:58.843Z,102012.74
2018-05-07T09:29:02.212Z,102009.93
2018-05-07T09:32:05.543Z,102005.90
2018-05-07T09:35:08.916Z,101998.95
2018-05-07T09:38:12.207Z,101998.82
2018-05-07T09:41:15.547Z,101996.99
2018-05-07T09:44:18.986Z,101986.94
2018-05-07T09:47:22.310Z,101987.10
2018-05-07T09:50:26.245Z,101986.57
2018-05-07T09:53:29.703Z,101980.91
2018-05-07T09:56:33.581Z,101981.81
2018-05-07T09:59:36.837Z,101967.35
2018-05-07T10:02:40.187Z,101961.46
2018-05-07T10:05:43.659Z,101960.70
2018-05-07T10:08:46.955Z,101960.60
2018-05-07T10:11:52.301Z,101954.88
2018-05-07T10:14:56.643Z,101961.53
2018-05-07T10:17:59.791Z,101959.83
2018-05-07T10:21:03.120Z,101954.46
2018-05-07T10:24:06.622Z,101947.26
2018-05-07T10:27:09.785Z,101939.58
2018-05-07T10:30:13.059Z,101935.79
2018-05-07T10:33:16.354Z,101935.57
2018-05-07T10:36:19.708Z,101925.57
2018-05-07T10:39:23.001Z,101924.48
2018-05-07T10:42:27.281Z,101921.71
2018-05-07T10:45:30.677Z,101917.73
2018-05-07T10:48:34.024Z,101915.51
2018-05-07T10:51:37.368Z,101912.23
2018-05-07T10:54:40.766Z,101907.73
2018-05-07T10:57:43.947Z,101892.10
2018-05-07T11:00:47.335Z,101903.41
2018-05-07T11:03:50.615Z,101888.97
2018-05-07T11:06:54.289Z,101877.45
2018-05-07T11:09:57.560Z,101881.28
2018-05-07T11:13:00.927Z,101878.00
2018-05-07T11:16:04.162Z,101871.50
2018-05-07T11:19:07.401Z,101878.15
2018-05-07T11:22:10.717Z,101865.04
2018-05-07T11:25:13.944Z,101858.96
2018-05-07T11:28:17.259Z,101854.06
2018-05-07T11:31:20.637Z,101848.14
2018-05-07T11:34:24.682Z,101843.66
2018-05-07T11:37:27.963Z,101837.62
2018-05-07T11:40:31.237Z,101837.97
2018-05-07T11:43:34.427Z,101830.76
2018-05-07T11:46:45.483Z,101818.37
2018-05-07T11:49:48.720Z,101818.73
2018-05-07T11:52:51.964Z,101815.76
2018-05-07T11:55:56.135Z,101820.61
2018-05-07T11:58:59.490Z,101819.18
2018-05-07T12:02:02.838Z,101816.00
2018-05-07T12:05:06.058Z,101802.52
2018-05-07T12:08:09.350Z,101810.07
2018-05-07T12:11:12.625Z,101811.27
2018-05-07T12:14:16.010Z,101802.22
2018-05-07T12:17:19.189Z,101799.90
2018-05-07T12:20:22.481Z,101793.13
2018-05-07T12:23:26.616Z,101799.20
2018-05-07T12:26:29.896Z,101798.67
2018-05-07T12:29:33.189Z,101789.85
2018-05-07T12:32:36.553Z,101783.66
2018-05-07T12:35:39.921Z,101781.34
2018-05-07T12:38:43.111Z,101774.47
2018-05-07T12:41:46.475Z,101766.74
2018-05-07T12:44:49.771Z,101771.24
2018-05-07T12:47:53.102Z,101768.37
2018-05-07T12:50:56.492Z,101770.81
2018-05-07T12:54:00.615Z,101754.19
2018-05-07T12:57:03.816Z,101756.42
2018-05-07T13:00:07.359Z,101745.06
2018-05-07T13:03:10.788Z,101742.49
2018-05-07T13:06:14.039Z,101740.91
2018-05-07T13:09:17.379Z,101735.93
2018-05-07T13:12:25.810Z,101738.98
2018-05-07T13:15:29.459Z,101730.91
2018-05-07T13:18:32.610Z,101731.95
2018-05-07T13:21:35.903Z,101731.17
2018-05-07T13:24:41.444Z,101720.86
2018-05-07T13:27:44.785Z,101714.34
2018-05-07T13:30:48.159Z,101701.07
2018-05-07T13:33:51.513Z,101700.50
2018-05-07T13:36:55.532Z,101690.56
2018-05-07T13:39:59.017Z,101685.21
2018-05-07T13:43:02.497Z,101689.56
2018-05-07T13:46:05.897Z,101675.98
2018-05-07T13:49:09.291Z,101680.79
2018-05-07T13:52:12.670Z,101681.81
2018-05-07T13:55:17.410Z,101676.58
2018-05-07T13:58:20.659Z,101672.14
2018-05-07T14:01:23.993Z,101666.80
2018-05-07T14:04:28.246Z,101660.99
2018-05-07T14:07:33.667Z,101654.16
2018-05-07T14:10:37.045Z,101645.21
2018-05-07T14:13:40.525Z,101638.90
2018-05-07T14:16:43.713Z,101634.55
2018-05-07T14:19:47.074Z,101628.15
2018-05-07T14:22:50.299Z,101634.86
2018-05-07T14:25:53.640Z,101628.31
2018-05-07T14:28:56.934Z,101633.44
2018-05-07T14:32:00.240Z,101633.31
2018-05-07T14:35:03.634Z,101621.60
2018-05-07T14:38:08.099Z,101624.44
2018-05-07T14:41:11.560Z,101621.13
2018-05-07T14:44:14.845Z,101615.16
2018-05-07T14:47:18.230Z,101615.02
2018-05-07T14:50:21.680Z,101608.44
2018-05-07T14:53:24.964Z,101610.20
2018-05-07T14:56:28.126Z,101613.55
2018-05-07T14:59:32.421Z,101605.24
2018-05-07T15:02:36.417Z,101599.88
2018-05-07T15:05:39.755Z,101602.60
2018-05-07T15:08:43.138Z,101599.20
2018-05-07T15:11:46.509Z,101593.86
2018-05-07T15:14:49.785Z,101590.98
2018-05-07T15:17:52.993Z,101594.32
2018-05-07T15:20:57.315Z,101590.72
2018-05-07T15:24:00.720Z,101600.19
2018-05-07T15:27:03.944Z,101584.04
2018-05-07T15:30:07.320Z,101581.51
2018-05-07T15:33:18.784Z,101578.93
2018-05-07T15:36:22.070Z,101569.51
2018-05-07T15:39:25.276Z,101566.87
2018-05-07T15:42:29.575Z,101562.94
2018-05-07T15:45:32.796Z,101558.47
2018-05-07T15:48:35.988Z,101552.25
2018-05-07T15:51:39.427Z,101559.22
2018-05-07T15:54:42.691Z,101550.38
2018-05-07T15:57:47.227Z,101548.55
2018-05-07T16:00:50.588Z,101547.37
2018-05-07T16:03:53.917Z,101542.83
2018-05-07T16:06:58.353Z,101540.32
2018-05-07T16:10:02.630Z,101539.18
2018-05-07T16:13:05.896Z,101535.12
2018-05-07T16:16:11.346Z,101534.01
2018-05-07T16:19:14.771Z,101527.27
2018-05-07T16:22:18.188Z,101526.19
2018-05-07T16:25:21.487Z,101523.98
2018-05-07T16:28:25.096Z,101519.39
2018-05-07T16:31:29.364Z,101523.21
2018-05-07T16:34:32.733Z,101509.62
2018-05-07T16:37:36.063Z,101520.91
2018-05-07T16:40:39.499Z,101515.66
2018-05-07T16:43:42.844Z,101519.40
2018-05-07T16:46:46.156Z,101516.90
2018-05-07T16:49:49.831Z,101514.40
2018-05-07T16:52:53.247Z,101512.01
2018-05-07T16:55:56.520Z,101515.01
2018-05-07T16:58:59.952Z,101516.25
2018-05-07T17:02:03.291Z,101519.05
2018-05-07T17:05:07.888Z,101517.25
2018-05-07T17:08:11.266Z,101515.01
2018-05-07T17:11:14.466Z,101516.02
2018-05-07T17:14:17.644Z,101515.87
2018-05-07T17:17:21.044Z,101516.50
2018-05-07T17:20:24.529Z,101517.56
2018-05-07T17:23:28.811Z,101514.03
2018-05-07T17:26:32.196Z,101513.45
2018-05-07T17:29:36.968Z,101511.01
2018-05-07T17:32:41.513Z,101514.10
2018-05-07T17:35:44.937Z,101514.96
2018-05-07T17:38:48.300Z,101514.36
2018-05-07T17:41:51.637Z,101516.09
2018-05-07T17:45:07.781Z,101515.52
2018-05-07T17:48:22.475Z,101516.04
2018-05-07T17:51:25.944Z,101520.19
2018-05-07T17:54:29.359Z,101512.55
2018-05-07T17:57:32.745Z,101508.79
2018-05-07T18:00:37.076Z,101511.06
2018-05-07T18:03:41.888Z,101515.00
2018-05-07T18:06:45.198Z,101518.16
2018-05-07T18:09:48.576Z,101511.56
2018-05-07T18:12:51.952Z,101503.83
2018-05-07T18:15:55.272Z,101511.97
2018-05-07T18:18:58.657Z,101508.42
2018-05-07T18:22:02.055Z,101508.75
2018-05-07T18:25:05.423Z,101510.34
2018-05-07T18:28:09.001Z,101510.36
2018-05-07T18:31:13.380Z,101512.67
2018-05-07T18:34:16.751Z,101509.68
2018-05-07T18:37:20.071Z,101511.34
2018-05-07T18:40:23.425Z,101508.17
2018-05-07T18:43:26.755Z,101509.34
2018-05-07T18:46:30.071Z,101509.58
2018-05-07T18:49:33.470Z,101513.04
2018-05-07T18:52:37.585Z,101509.55
2018-05-07T18:55:40.954Z,101511.65
2018-05-07T18:58:44.288Z,101516.63
2018-05-07T19:01:47.710Z,101520.68
2018-05-07T19:04:51.610Z,101520.39
2018-05-07T19:07:54.773Z,101521.73
2018-05-07T19:10:58.092Z,101525.46
2018-05-07T19:14:01.448Z,101528.96
2018-05-07T19:17:04.727Z,101529.31
2018-05-07T19:20:09.080Z,101530.42
2018-05-07T19:23:12.352Z,101528.77
2018-05-07T19:26:15.776Z,101530.13
2018-05-07T19:29:19.107Z,101535.27
2018-05-07T19:32:22.380Z,101535.36
2018-05-07T19:35:25.719Z,101530.97
2018-05-07T19:38:29.120Z,101532.09
2018-05-07T19:41:32.699Z,101530.64
2018-05-07T19:44:36.766Z,101529.35
2018-05-07T19:47:40.166Z,101531.75
2018-05-07T19:50:43.538Z,101529.42
2018-05-07T19:53:46.941Z,101522.66
2018-05-07T19:56:50.346Z,101528.28
2018-05-07T19:59:54.585Z,101528.17
2018-05-07T20:02:57.876Z,101527.29
2018-05-07T20:06:01.154Z,101525.34
2018-05-07T20:09:04.971Z,101522.41
2018-05-07T20:12:09.200Z,101522.59
2018-05-07T20:15:12.492Z,101521.76
2018-05-07T20:18:15.799Z,101515.36
2018-05-07T20:21:19.107Z,101518.15
2018-05-07T20:24:22.459Z,101515.67
2018-05-07T20:27:25.827Z,101518.70
2018-05-07T20:30:29.197Z,101520.19
2018-05-07T20:33:33.420Z,101524.93
2018-05-07T20:36:37.225Z,101523.77
2018-05-07T20:39:40.599Z,101521.07
2018-05-07T20:42:43.899Z,101520.45
2018-05-07T20:45:47.194Z,101522.22
2018-05-07T20:48:50.552Z,101519.32
2018-05-07T20:51:53.770Z,101520.62
2018-05-07T20:54:57.191Z,101522.71
2018-05-07T20:58:00.561Z,101519.80
2018-05-07T21:01:04.136Z,101515.96
2018-05-07T21:04:09.400Z,101515.01
2018-05-07T21:07:13.842Z,101520.20
2018-05-07T21:10:17.368Z,101521.95
2018-05-07T21:13:21.810Z,101527.05
2018-05-07T21:16:25.111Z,101524.79
2018-05-07T21:19:28.473Z,101531.77
2018-05-07T21:22:32.545Z,101529.39
2018-05-07T21:25:35.853Z,101527.85
2018-05-07T21:28:40.456Z,101533.80
2018-05-07T21:31:43.764Z,101531.89
2018-05-07T21:34:48.792Z,101534.20
2018-05-07T21:37:52.500Z,101533.13
2018-05-07T21:40:56.968Z,101536.71
2018-05-07T21:44:00.383Z,101533.70
2018-05-07T21:47:03.749Z,101536.37
2018-05-07T21:50:07.528Z,101535.90
2018-05-07T21:53:11.341Z,101535.26
2018-05-07T21:56:14.643Z,101532.36
2018-05-07T21:59:19.037Z,101532.01
2018-05-07T22:02:22.377Z,101530.62
2018-05-07T22:05:25.679Z,101525.50
2018-05-07T22:08:29.108Z,101530.52
2018-05-07T22:11:32.487Z,101523.42
2018-05-07T22:14:36.011Z,101527.52
2018-05-07T22:17:40.191Z,101528.87
2018-05-07T22:20:43.503Z,101532.94
2018-05-07T22:23:46.905Z,101528.87
2018-05-07T22:26:50.260Z,101525.20
2018-05-07T22:29:53.619Z,101523.03
2018-05-07T22:32:57.003Z,101517.81
2018-05-07T22:36:00.425Z,101515.39
2018-05-07T22:39:03.812Z,101514.35
2018-05-07T22:42:07.882Z,101511.00
2018-05-07T22:45:11.329Z,101513.02
2018-05-07T22:48:14.639Z,101514.92
2018-05-07T22:51:17.857Z,101511.54
2018-05-07T22:54:21.187Z,101517.17
2018-05-07T22:57:24.531Z,101518.53
2018-05-07T23:00:28.277Z,101518.30
2018-05-07T23:03:31.679Z,101517.42
2018-05-07T23:06:34.880Z,101515.99
2018-05-07T23:09:38.221Z,101514.82
2018-05-07T23:12:41.519Z,101509.08
2018-05-07T23:15:44.921Z,101508.66
2018-05-07T23:18:48.791Z,101505.60
2018-05-07T23:21:52.294Z,101503.55
2018-05-07T23:24:56.024Z,101499.15
2018-05-07T23:27:59.444Z,101499.31
2018-05-07T23:31:02.745Z,101496.59
2018-05-07T23:34:06.119Z,101493.31
2018-05-07T23:37:10.363Z,101486.15
2018-05-07T23:40:13.583Z,101480.10
2018-05-07T23:43:16.933Z,101483.78
2018-05-07T23:46:20.348Z,101481.09
2018-05-07T23:49:23.596Z,101480.57
2018-05-07T23:52:27.040Z,101479.99
2018-05-07T23:55:30.376Z,101478.69
2018-05-07T23:58:33.704Z,101476.08
